sensor_id;sensor_type;location;lat;lon;timestamp;pressure;altitude;pressure_sealevel;temperature;humidity
24230;BME280;12362;50.004;8.006;2022-11-18T00:01:18;98774.13;;;8.73;100.00
24230;BME280;12362;50.004;8.006;2022-11-18T00:03:48;98768.22;;;8.71;100.00
24230;BME280;12362;50.004;8.006;2022-11-18T00:06:16;98768.63;;;8.77;100.00
24230;BME280;12362;50.004;8.006;2022-11-18T00:08:42;98768.94;;;8.73;100.00
24230;BME280;12362;50.004;8.006;2022-11-18T00:11:13;98762.75;;;8.75;100.00
24230;BME280;12362;50.004;8.006;2022-11-18T00:13:57;98768.88;;;8.74;100.00
24230;BME280;12362;50.004;8.006;2022-11-18T00:16:42;98771.94;;;8.79;100.00
24230;BME280;12362;50.004;8.006;2022-11-18T00:19:07;98762.03;;;8.73;100.00
24230;BME280;12362;50.004;8.006;2022-11-18T00:21:33;98760.88;;;8.77;100.00
24230;BME280;12362;50.004;8.006;2022-11-18T00:23:59;98764.50;;;8.75;100.00
24230;BME280;12362;50.004;8.006;2022-11-18T00:26:25;98765.75;;;8.69;100.00
24230;BME280;12362;50.004;8.006;2022-11-18T00:28:50;98772.56;;;8.70;100.00
24230;BME280;12362;50.004;8.006;2022-11-18T00:31:17;98775.28;;;8.69;100.00
24230;BME280;12362;50.004;8.006;2022-11-18T00:34:03;98784.47;;;8.73;100.00
24230;BME280;12362;50.004;8.006;2022-11-18T00:36:29;98785.50;;;8.83;100.00
24230;BME280;12362;50.004;8.006;2022-11-18T00:38:55;98787.59;;;8.90;100.00
24230;BME280;12362;50.004;8.006;2022-11-18T00:41:21;98776.28;;;8.91;100.00
24230;BME280;12362;50.004;8.006;2022-11-18T00:43:47;98791.09;;;8.89;100.00
24230;BME280;12362;50.004;8.006;2022-11-18T00:46:13;98779.00;;;8.90;100.00
24230;BME280;12362;50.004;8.006;2022-11-18T00:48:39;98780.66;;;8.91;100.00
24230;BME280;12362;50.004;8.006;2022-11-18T00:51:13;98779.41;;;8.96;100.00
24230;BME280;12362;50.004;8.006;2022-11-18T00:53:39;98775.78;;;8.99;100.00
24230;BME280;12362;50.004;8.006;2022-11-18T00:56:05;98776.50;;;9.01;100.00
24230;BME280;12362;50.004;8.006;2022-11-18T00:58:32;98782.94;;;8.95;100.00
24230;BME280;12362;50.004;8.006;2022-11-18T01:00:58;98778.47;;;8.97;100.00
24230;BME280;12362;50.004;8.006;2022-11-18T01:03:26;98777.97;;;8.92;100.00
24230;BME280;12362;50.004;8.006;2022-11-18T01:05:52;98794.81;;;8.98;100.00
24230;BME280;12362;50.004;8.006;2022-11-18T01:08:18;98795.03;;;8.95;100.00
24230;BME280;12362;50.004;8.006;2022-11-18T01:10:44;98798.25;;;8.98;100.00
24230;BME280;12362;50.004;8.006;2022-11-18T01:13:14;98798.34;;;8.97;100.00
24230;BME280;12362;50.004;8.006;2022-11-18T01:18:12;98803.53;;;8.97;100.00
24230;BME280;12362;50.004;8.006;2022-11-18T01:20:37;98810.28;;;8.99;100.00
24230;BME280;12362;50.004;8.006;2022-11-18T01:23:03;98808.38;;;9.01;100.00
24230;BME280;12362;50.004;8.006;2022-11-18T01:25:29;98797.22;;;9.01;100.00
24230;BME280;12362;50.004;8.006;2022-11-18T01:27:55;98803.75;;;9.06;100.00
24230;BME280;12362;50.004;8.006;2022-11-18T01:30:21;98808.91;;;9.06;100.00
24230;BME280;12362;50.004;8.006;2022-11-18T01:32:47;98815.31;;;9.13;100.00
24230;BME280;12362;50.004;8.006;2022-11-18T01:35:12;98815.13;;;9.16;100.00
24230;BME280;12362;50.004;8.006;2022-11-18T01:37:39;98810.47;;;9.21;100.00
24230;BME280;12362;50.004;8.006;2022-11-18T01:40:06;98827.22;;;9.28;100.00
24230;BME280;12362;50.004;8.006;2022-11-18T01:42:34;98824.75;;;9.26;100.00
24230;BME280;12362;50.004;8.006;2022-11-18T01:45:20;98826.19;;;9.30;100.00
24230;BME280;12362;50.004;8.006;2022-11-18T01:47:53;98828.56;;;9.33;100.00
24230;BME280;12362;50.004;8.006;2022-11-18T01:50:23;98831.91;;;9.23;100.00
24230;BME280;12362;50.004;8.006;2022-11-18T01:52:49;98839.78;;;9.21;100.00
24230;BME280;12362;50.004;8.006;2022-11-18T01:55:20;98833.84;;;9.19;100.00
24230;BME280;12362;50.004;8.006;2022-11-18T01:57:48;98833.84;;;9.19;100.00
24230;BME280;12362;50.004;8.006;2022-11-18T02:00:16;98827.56;;;9.23;100.00
24230;BME280;12362;50.004;8.006;2022-11-18T02:02:42;98830.56;;;9.17;100.00
24230;BME280;12362;50.004;8.006;2022-11-18T02:05:08;98833.25;;;9.16;100.00
24230;BME280;12362;50.004;8.006;2022-11-18T02:07:40;98832.31;;;9.17;100.00
24230;BME280;12362;50.004;8.006;2022-11-18T02:10:08;98838.53;;;9.14;100.00
24230;BME280;12362;50.004;8.006;2022-11-18T02:12:35;98841.31;;;9.11;100.00
24230;BME280;12362;50.004;8.006;2022-11-18T02:15:02;98838.84;;;9.10;100.00
24230;BME280;12362;50.004;8.006;2022-11-18T02:18:08;98842.88;;;9.14;100.00
24230;BME280;12362;50.004;8.006;2022-11-18T02:20:46;98848.56;;;9.06;100.00
24230;BME280;12362;50.004;8.006;2022-11-18T02:28:57;98855.94;;;9.12;100.00
24230;BME280;12362;50.004;8.006;2022-11-18T02:31:30;98856.88;;;9.11;100.00
24230;BME280;12362;50.004;8.006;2022-11-18T02:34:20;98857.41;;;9.16;100.00
24230;BME280;12362;50.004;8.006;2022-11-18T02:37:14;98859.06;;;9.17;100.00
24230;BME280;12362;50.004;8.006;2022-11-18T02:39:53;98858.53;;;9.12;100.00
24230;BME280;12362;50.004;8.006;2022-11-18T02:42:23;98855.09;;;9.12;100.00
24230;BME280;12362;50.004;8.006;2022-11-18T02:44:59;98852.13;;;9.05;100.00
24230;BME280;12362;50.004;8.006;2022-11-18T02:47:27;98853.66;;;9.08;100.00
24230;BME280;12362;50.004;8.006;2022-11-18T02:49:59;98852.63;;;9.10;100.00
24230;BME280;12362;50.004;8.006;2022-11-18T02:52:26;98852.81;;;9.07;100.00
24230;BME280;12362;50.004;8.006;2022-11-18T02:54:52;98851.47;;;9.14;100.00
24230;BME280;12362;50.004;8.006;2022-11-18T02:57:20;98852.13;;;9.05;100.00
24230;BME280;12362;50.004;8.006;2022-11-18T03:02:49;98851.69;;;9.11;100.00
24230;BME280;12362;50.004;8.006;2022-11-18T03:05:41;98860.78;;;9.17;100.00
24230;BME280;12362;50.004;8.006;2022-11-18T03:08:19;98856.75;;;9.13;100.00
24230;BME280;12362;50.004;8.006;2022-11-18T03:10:56;98864.81;;;9.08;100.00
24230;BME280;12362;50.004;8.006;2022-11-18T03:13:33;98857.59;;;9.13;100.00
24230;BME280;12362;50.004;8.006;2022-11-18T03:16:12;98852.91;;;9.18;100.00
24230;BME280;12362;50.004;8.006;2022-11-18T03:21:18;98861.94;;;9.13;100.00
24230;BME280;12362;50.004;8.006;2022-11-18T03:23:54;98867.63;;;9.18;100.00
24230;BME280;12362;50.004;8.006;2022-11-18T03:26:35;98865.16;;;9.16;100.00
24230;BME280;12362;50.004;8.006;2022-11-18T03:29:08;98865.56;;;9.23;100.00
24230;BME280;12362;50.004;8.006;2022-11-18T03:31:38;98872.50;;;9.22;100.00
24230;BME280;12362;50.004;8.006;2022-11-18T03:34:12;98873.00;;;9.15;100.00
24230;BME280;12362;50.004;8.006;2022-11-18T03:36:42;98875.28;;;9.19;100.00
24230;BME280;12362;50.004;8.006;2022-11-18T03:39:11;98874.16;;;9.11;100.00
24230;BME280;12362;50.004;8.006;2022-11-18T03:41:43;98882.75;;;9.11;100.00
24230;BME280;12362;50.004;8.006;2022-11-18T03:44:13;98890.31;;;9.14;100.00
24230;BME280;12362;50.004;8.006;2022-11-18T03:46:46;98891.88;;;9.17;100.00
24230;BME280;12362;50.004;8.006;2022-11-18T03:49:18;98891.06;;;9.16;100.00
24230;BME280;12362;50.004;8.006;2022-11-18T03:51:52;98902.34;;;9.15;100.00
24230;BME280;12362;50.004;8.006;2022-11-18T03:54:24;98906.28;;;9.21;100.00
24230;BME280;12362;50.004;8.006;2022-11-18T03:57:30;98905.84;;;9.14;100.00
24230;BME280;12362;50.004;8.006;2022-11-18T04:00:05;98911.97;;;9.13;100.00
24230;BME280;12362;50.004;8.006;2022-11-18T04:02:31;98906.59;;;9.16;100.00
24230;BME280;12362;50.004;8.006;2022-11-18T04:04:59;98910.53;;;9.22;100.00
24230;BME280;12362;50.004;8.006;2022-11-18T04:08:44;98911.78;;;9.16;100.00
24230;BME280;12362;50.004;8.006;2022-11-18T04:10:51;98918.69;;;9.16;100.00
24230;BME280;12362;50.004;8.006;2022-11-18T04:13:23;98923.38;;;9.11;100.00
24230;BME280;12362;50.004;8.006;2022-11-18T04:15:49;98910.41;;;9.11;100.00
24230;BME280;12362;50.004;8.006;2022-11-18T04:18:15;98922.94;;;9.04;100.00
24230;BME280;12362;50.004;8.006;2022-11-18T04:20:40;98917.84;;;9.03;100.00
24230;BME280;12362;50.004;8.006;2022-11-18T04:23:06;98916.50;;;8.98;100.00
24230;BME280;12362;50.004;8.006;2022-11-18T04:25:33;98916.28;;;9.01;100.00
24230;BME280;12362;50.004;8.006;2022-11-18T04:27:58;98926.94;;;8.96;100.00
24230;BME280;12362;50.004;8.006;2022-11-18T04:30:24;98922.91;;;8.92;100.00
24230;BME280;12362;50.004;8.006;2022-11-18T04:32:49;98929.84;;;8.92;100.00
24230;BME280;12362;50.004;8.006;2022-11-18T04:35:14;98937.91;;;8.87;100.00
24230;BME280;12362;50.004;8.006;2022-11-18T04:37:40;98931.47;;;8.80;100.00
24230;BME280;12362;50.004;8.006;2022-11-18T04:40:06;98930.72;;;8.78;100.00
24230;BME280;12362;50.004;8.006;2022-11-18T04:42:32;98929.81;;;8.79;100.00
24230;BME280;12362;50.004;8.006;2022-11-18T04:44:57;98935.28;;;8.75;100.00
24230;BME280;12362;50.004;8.006;2022-11-18T04:47:23;98931.75;;;8.76;100.00
24230;BME280;12362;50.004;8.006;2022-11-18T04:49:48;98937.91;;;8.61;100.00
24230;BME280;12362;50.004;8.006;2022-11-18T04:52:14;98945.78;;;8.59;100.00
24230;BME280;12362;50.004;8.006;2022-11-18T04:54:39;98947.63;;;8.57;100.00
24230;BME280;12362;50.004;8.006;2022-11-18T04:57:05;98949.41;;;8.57;100.00
24230;BME280;12362;50.004;8.006;2022-11-18T04:59:30;98958.91;;;8.56;100.00
24230;BME280;12362;50.004;8.006;2022-11-18T05:01:56;98965.84;;;8.56;100.00
24230;BME280;12362;50.004;8.006;2022-11-18T05:04:27;98960.47;;;8.59;100.00
24230;BME280;12362;50.004;8.006;2022-11-18T05:06:57;98971.66;;;8.59;100.00
24230;BME280;12362;50.004;8.006;2022-11-18T05:09:24;98974.97;;;8.61;100.00
24230;BME280;12362;50.004;8.006;2022-11-18T05:11:49;98976.28;;;8.54;100.00
24230;BME280;12362;50.004;8.006;2022-11-18T05:14:33;98975.31;;;8.43;100.00
24230;BME280;12362;50.004;8.006;2022-11-18T05:17:00;98974.84;;;8.36;100.00
24230;BME280;12362;50.004;8.006;2022-11-18T05:19:26;98973.94;;;8.37;100.00
24230;BME280;12362;50.004;8.006;2022-11-18T05:21:52;98976.41;;;8.39;100.00
24230;BME280;12362;50.004;8.006;2022-11-18T05:24:18;98979.91;;;8.38;100.00
24230;BME280;12362;50.004;8.006;2022-11-18T05:26:44;98979.56;;;8.44;100.00
24230;BME280;12362;50.004;8.006;2022-11-18T05:29:10;98981.59;;;8.39;100.00
24230;BME280;12362;50.004;8.006;2022-11-18T05:31:35;98990.09;;;8.41;100.00
24230;BME280;12362;50.004;8.006;2022-11-18T05:34:01;98991.44;;;8.46;100.00
24230;BME280;12362;50.004;8.006;2022-11-18T05:36:26;98992.34;;;8.59;100.00
24230;BME280;12362;50.004;8.006;2022-11-18T05:38:52;98995.69;;;8.61;100.00
24230;BME280;12362;50.004;8.006;2022-11-18T05:41:21;98999.81;;;8.64;100.00
24230;BME280;12362;50.004;8.006;2022-11-18T05:44:05;98984.34;;;8.76;100.00
24230;BME280;12362;50.004;8.006;2022-11-18T05:46:31;99002.81;;;8.84;100.00
24230;BME280;12362;50.004;8.006;2022-11-18T05:48:56;99005.22;;;8.87;100.00
24230;BME280;12362;50.004;8.006;2022-11-18T05:51:22;99007.69;;;8.89;100.00
24230;BME280;12362;50.004;8.006;2022-11-18T05:53:49;99003.84;;;8.82;100.00
24230;BME280;12362;50.004;8.006;2022-11-18T05:56:24;99009.34;;;8.90;100.00
24230;BME280;12362;50.004;8.006;2022-11-18T05:58:51;99018.66;;;8.92;100.00
24230;BME280;12362;50.004;8.006;2022-11-18T06:02:09;99009.25;;;8.91;100.00
24230;BME280;12362;50.004;8.006;2022-11-18T06:04:18;99016.25;;;8.89;100.00
24230;BME280;12362;50.004;8.006;2022-11-18T06:06:47;99014.13;;;8.96;100.00
24230;BME280;12362;50.004;8.006;2022-11-18T06:09:35;99012.38;;;8.96;100.00
24230;BME280;12362;50.004;8.006;2022-11-18T06:12:04;99023.03;;;8.92;100.00
24230;BME280;12362;50.004;8.006;2022-11-18T06:14:57;99026.75;;;9.00;100.00
24230;BME280;12362;50.004;8.006;2022-11-18T06:17:31;99036.28;;;9.00;100.00
24230;BME280;12362;50.004;8.006;2022-11-18T06:19:58;99043.13;;;9.01;100.00
24230;BME280;12362;50.004;8.006;2022-11-18T06:22:24;99046.66;;;9.00;100.00
24230;BME280;12362;50.004;8.006;2022-11-18T06:24:50;99049.44;;;8.97;100.00
24230;BME280;12362;50.004;8.006;2022-11-18T06:27:16;99049.72;;;8.92;100.00
24230;BME280;12362;50.004;8.006;2022-11-18T06:29:42;99057.59;;;8.91;100.00
24230;BME280;12362;50.004;8.006;2022-11-18T06:32:07;99059.16;;;8.93;100.00
24230;BME280;12362;50.004;8.006;2022-11-18T06:34:33;99060.94;;;8.93;100.00
24230;BME280;12362;50.004;8.006;2022-11-18T06:36:59;99057.66;;;8.89;100.00
24230;BME280;12362;50.004;8.006;2022-11-18T06:39:24;99066.19;;;8.91;100.00
24230;BME280;12362;50.004;8.006;2022-11-18T06:41:53;99065.06;;;8.95;100.00
24230;BME280;12362;50.004;8.006;2022-11-18T06:44:18;99073.66;;;8.96;100.00
24230;BME280;12362;50.004;8.006;2022-11-18T06:46:44;99076.34;;;8.94;100.00
24230;BME280;12362;50.004;8.006;2022-11-18T06:49:23;99077.81;;;8.98;100.00
24230;BME280;12362;50.004;8.006;2022-11-18T06:51:49;99088.47;;;8.94;100.00
24230;BME280;12362;50.004;8.006;2022-11-18T06:54:14;99088.25;;;8.97;100.00
24230;BME280;12362;50.004;8.006;2022-11-18T06:56:39;99084.66;;;8.99;100.00
24230;BME280;12362;50.004;8.006;2022-11-18T06:59:05;99087.03;;;9.02;100.00
24230;BME280;12362;50.004;8.006;2022-11-18T07:01:34;99095.66;;;9.02;100.00
24230;BME280;12362;50.004;8.006;2022-11-18T07:04:00;99098.56;;;9.10;100.00
24230;BME280;12362;50.004;8.006;2022-11-18T07:06:27;99102.19;;;9.08;100.00
24230;BME280;12362;50.004;8.006;2022-11-18T07:08:54;99103.41;;;9.02;100.00
24230;BME280;12362;50.004;8.006;2022-11-18T07:11:22;99103.88;;;9.09;100.00
24230;BME280;12362;50.004;8.006;2022-11-18T07:13:48;99108.19;;;9.08;100.00
24230;BME280;12362;50.004;8.006;2022-11-18T07:16:18;99109.03;;;9.09;100.00
24230;BME280;12362;50.004;8.006;2022-11-18T07:18:45;99113.66;;;9.04;100.00
24230;BME280;12362;50.004;8.006;2022-11-18T07:21:13;99122.66;;;8.99;100.00
24230;BME280;12362;50.004;8.006;2022-11-18T07:23:39;99122.34;;;9.03;100.00
24230;BME280;12362;50.004;8.006;2022-11-18T07:26:05;99130.03;;;9.04;100.00
24230;BME280;12362;50.004;8.006;2022-11-18T07:28:31;99137.59;;;9.07;100.00
24230;BME280;12362;50.004;8.006;2022-11-18T07:31:11;99136.31;;;9.14;100.00
24230;BME280;12362;50.004;8.006;2022-11-18T07:33:37;99134.72;;;9.12;100.00
24230;BME280;12362;50.004;8.006;2022-11-18T07:36:05;99143.22;;;9.14;100.00
24230;BME280;12362;50.004;8.006;2022-11-18T07:38:31;99154.06;;;9.06;100.00
24230;BME280;12362;50.004;8.006;2022-11-18T07:41:24;99160.25;;;9.04;100.00
24230;BME280;12362;50.004;8.006;2022-11-18T07:43:51;99164.69;;;9.02;100.00
24230;BME280;12362;50.004;8.006;2022-11-18T07:46:20;99172.38;;;9.03;100.00
24230;BME280;12362;50.004;8.006;2022-11-18T07:48:47;99173.03;;;9.07;100.00
24230;BME280;12362;50.004;8.006;2022-11-18T07:51:18;99173.78;;;9.09;100.00
24230;BME280;12362;50.004;8.006;2022-11-18T07:53:45;99182.00;;;9.02;100.00
24230;BME280;12362;50.004;8.006;2022-11-18T07:56:11;99188.91;;;9.15;100.00
24230;BME280;12362;50.004;8.006;2022-11-18T07:58:37;99189.28;;;9.23;100.00
24230;BME280;12362;50.004;8.006;2022-11-18T08:01:15;99193.97;;;9.30;100.00
24230;BME280;12362;50.004;8.006;2022-11-18T08:03:41;99197.09;;;9.35;100.00
24230;BME280;12362;50.004;8.006;2022-11-18T08:06:14;99186.63;;;9.37;100.00
24230;BME280;12362;50.004;8.006;2022-11-18T08:08:43;99199.03;;;9.46;100.00
24230;BME280;12362;50.004;8.006;2022-11-18T08:11:13;99208.66;;;9.44;100.00
24230;BME280;12362;50.004;8.006;2022-11-18T08:13:39;99206.50;;;9.50;100.00
24230;BME280;12362;50.004;8.006;2022-11-18T08:16:13;99206.72;;;9.60;100.00
24230;BME280;12362;50.004;8.006;2022-11-18T08:18:39;99212.50;;;9.51;100.00
24230;BME280;12362;50.004;8.006;2022-11-18T08:21:05;99212.44;;;9.52;100.00
24230;BME280;12362;50.004;8.006;2022-11-18T08:23:30;99221.56;;;9.58;100.00
24230;BME280;12362;50.004;8.006;2022-11-18T08:26:10;99227.91;;;9.66;100.00
24230;BME280;12362;50.004;8.006;2022-11-18T08:28:37;99235.91;;;9.63;100.00
24230;BME280;12362;50.004;8.006;2022-11-18T08:31:15;99225.13;;;9.69;100.00
24230;BME280;12362;50.004;8.006;2022-11-18T08:33:40;99224.63;;;9.77;100.00
24230;BME280;12362;50.004;8.006;2022-11-18T08:36:13;99237.28;;;9.69;100.00
24230;BME280;12362;50.004;8.006;2022-11-18T08:38:39;99234.28;;;9.75;100.00
24230;BME280;12362;50.004;8.006;2022-11-18T08:41:05;99232.59;;;9.74;100.00
24230;BME280;12362;50.004;8.006;2022-11-18T08:43:33;99237.13;;;9.84;100.00
24230;BME280;12362;50.004;8.006;2022-11-18T08:45:59;99225.38;;;9.79;100.00
24230;BME280;12362;50.004;8.006;2022-11-18T08:48:24;99230.41;;;9.94;100.00
24230;BME280;12362;50.004;8.006;2022-11-18T08:50:50;99228.22;;;10.14;100.00
24230;BME280;12362;50.004;8.006;2022-11-18T08:53:16;99232.03;;;10.09;100.00
24230;BME280;12362;50.004;8.006;2022-11-18T08:55:41;99236.69;;;10.04;100.00
24230;BME280;12362;50.004;8.006;2022-11-18T08:58:07;99245.09;;;10.07;100.00
24230;BME280;12362;50.004;8.006;2022-11-18T09:00:32;99245.63;;;10.12;100.00
24230;BME280;12362;50.004;8.006;2022-11-18T09:02:57;99252.38;;;10.15;100.00
24230;BME280;12362;50.004;8.006;2022-11-18T09:05:23;99249.41;;;10.21;100.00
24230;BME280;12362;50.004;8.006;2022-11-18T09:07:48;99250.00;;;10.12;100.00
24230;BME280;12362;50.004;8.006;2022-11-18T09:10:14;99248.97;;;10.27;100.00
24230;BME280;12362;50.004;8.006;2022-11-18T09:12:40;99244.88;;;10.49;100.00
24230;BME280;12362;50.004;8.006;2022-11-18T09:15:05;99251.97;;;10.60;100.00
24230;BME280;12362;50.004;8.006;2022-11-18T09:17:33;99255.69;;;10.56;100.00
24230;BME280;12362;50.004;8.006;2022-11-18T09:19:58;99253.78;;;10.45;100.00
24230;BME280;12362;50.004;8.006;2022-11-18T09:22:25;99250.28;;;10.59;100.00
24230;BME280;12362;50.004;8.006;2022-11-18T09:24:50;99256.41;;;10.58;100.00
24230;BME280;12362;50.004;8.006;2022-11-18T09:27:16;99249.56;;;10.69;100.00
24230;BME280;12362;50.004;8.006;2022-11-18T09:29:41;99255.47;;;10.59;100.00
24230;BME280;12362;50.004;8.006;2022-11-18T09:32:07;99253.00;;;10.70;100.00
24230;BME280;12362;50.004;8.006;2022-11-18T09:34:33;99256.31;;;10.59;100.00
24230;BME280;12362;50.004;8.006;2022-11-18T09:36:58;99259.09;;;10.56;100.00
24230;BME280;12362;50.004;8.006;2022-11-18T09:39:24;99254.22;;;10.52;100.00
24230;BME280;12362;50.004;8.006;2022-11-18T09:47:34;99265.75;;;10.73;100.00
24230;BME280;12362;50.004;8.006;2022-11-18T09:50:09;99263.69;;;10.78;100.00
24230;BME280;12362;50.004;8.006;2022-11-18T09:52:45;99262.44;;;10.83;100.00
24230;BME280;12362;50.004;8.006;2022-11-18T09:55:15;99268.56;;;10.82;100.00
24230;BME280;12362;50.004;8.006;2022-11-18T09:57:47;99272.00;;;10.83;100.00
24230;BME280;12362;50.004;8.006;2022-11-18T10:00:22;99267.31;;;10.87;100.00
24230;BME280;12362;50.004;8.006;2022-11-18T10:03:14;99269.50;;;10.93;100.00
24230;BME280;12362;50.004;8.006;2022-11-18T10:05:57;99272.94;;;11.06;100.00
24230;BME280;12362;50.004;8.006;2022-11-18T10:08:47;99271.88;;;10.96;100.00
24230;BME280;12362;50.004;8.006;2022-11-18T10:11:26;99280.50;;;11.09;100.00
24230;BME280;12362;50.004;8.006;2022-11-18T10:14:01;99282.47;;;11.06;100.00
24230;BME280;12362;50.004;8.006;2022-11-18T10:24:24;99296.84;;;10.99;100.00
24230;BME280;12362;50.004;8.006;2022-11-18T10:26:55;99297.56;;;11.01;100.00
24230;BME280;12362;50.004;8.006;2022-11-18T10:29:21;99294.13;;;11.00;100.00
24230;BME280;12362;50.004;8.006;2022-11-18T10:32:12;99302.44;;;11.05;100.00
24230;BME280;12362;50.004;8.006;2022-11-18T10:35:19;99303.56;;;11.01;100.00
24230;BME280;12362;50.004;8.006;2022-11-18T10:37:59;99303.47;;;11.15;100.00
24230;BME280;12362;50.004;8.006;2022-11-18T10:43:44;99300.47;;;11.09;100.00
24230;BME280;12362;50.004;8.006;2022-11-18T10:46:15;99298.28;;;11.15;100.00
24230;BME280;12362;50.004;8.006;2022-11-18T10:48:41;99303.66;;;11.37;100.00
24230;BME280;12362;50.004;8.006;2022-11-18T10:51:22;99299.16;;;11.64;100.00
24230;BME280;12362;50.004;8.006;2022-11-18T10:53:48;99299.66;;;11.69;100.00
24230;BME280;12362;50.004;8.006;2022-11-18T10:56:14;99295.63;;;11.65;100.00
24230;BME280;12362;50.004;8.006;2022-11-18T10:58:45;99295.31;;;11.93;100.00
24230;BME280;12362;50.004;8.006;2022-11-18T11:03:59;99294.66;;;12.94;100.00
24230;BME280;12362;50.004;8.006;2022-11-18T11:11:24;99281.75;;;12.58;100.00
24230;BME280;12362;50.004;8.006;2022-11-18T11:13:53;99283.41;;;12.59;100.00
24230;BME280;12362;50.004;8.006;2022-11-18T11:16:20;99284.47;;;12.22;100.00
24230;BME280;12362;50.004;8.006;2022-11-18T11:18:52;99281.75;;;12.58;100.00
24230;BME280;12362;50.004;8.006;2022-11-18T11:21:21;99286.75;;;12.95;100.00
24230;BME280;12362;50.004;8.006;2022-11-18T11:23:47;99273.47;;;12.98;100.00
24230;BME280;12362;50.004;8.006;2022-11-18T11:30:09;99270.25;;;13.06;100.00
24230;BME280;12362;50.004;8.006;2022-11-18T11:36:11;99277.38;;;13.04;100.00
24230;BME280;12362;50.004;8.006;2022-11-18T11:44:22;99260.59;;;13.83;100.00
24230;BME280;12362;50.004;8.006;2022-11-18T11:50:02;99269.66;;;13.57;100.00
24230;BME280;12362;50.004;8.006;2022-11-18T11:52:39;99264.25;;;13.91;100.00
24230;BME280;12362;50.004;8.006;2022-11-18T11:55:17;99257.28;;;14.23;100.00
24230;BME280;12362;50.004;8.006;2022-11-18T11:58:10;99261.56;;;14.24;100.00
24230;BME280;12362;50.004;8.006;2022-11-18T12:00:48;99246.03;;;14.84;100.00
24230;BME280;12362;50.004;8.006;2022-11-18T12:03:44;99246.09;;;15.23;100.00
24230;BME280;12362;50.004;8.006;2022-11-18T12:06:11;99253.28;;;15.60;100.00
24230;BME280;12362;50.004;8.006;2022-11-18T12:08:43;99259.75;;;14.56;100.00
24230;BME280;12362;50.004;8.006;2022-11-18T12:17:20;99245.97;;;14.74;100.00
24230;BME280;12362;50.004;8.006;2022-11-18T12:19:49;99256.69;;;14.71;100.00
24230;BME280;12362;50.004;8.006;2022-11-18T12:22:15;99262.16;;;15.09;100.00
24230;BME280;12362;50.004;8.006;2022-11-18T12:24:41;99260.84;;;14.74;100.00
24230;BME280;12362;50.004;8.006;2022-11-18T12:30:01;99266.47;;;14.99;100.00
24230;BME280;12362;50.004;8.006;2022-11-18T12:32:41;99260.88;;;15.04;100.00
24230;BME280;12362;50.004;8.006;2022-11-18T12:42:58;99268.22;;;14.89;100.00
24230;BME280;12362;50.004;8.006;2022-11-18T12:51:41;99265.34;;;15.22;100.00
24230;BME280;12362;50.004;8.006;2022-11-18T12:53:47;99272.31;;;14.82;100.00
24230;BME280;12362;50.004;8.006;2022-11-18T12:56:22;99267.50;;;15.08;100.00
24230;BME280;12362;50.004;8.006;2022-11-18T13:01:21;99274.41;;;14.68;100.00
24230;BME280;12362;50.004;8.006;2022-11-18T13:03:47;99280.25;;;14.40;100.00
24230;BME280;12362;50.004;8.006;2022-11-18T13:08:53;99276.50;;;14.53;100.00
24230;BME280;12362;50.004;8.006;2022-11-18T13:11:20;99286.22;;;13.89;100.00
24230;BME280;12362;50.004;8.006;2022-11-18T13:14:05;99285.44;;;13.56;100.00
24230;BME280;12362;50.004;8.006;2022-11-18T13:16:56;99294.56;;;13.50;100.00
24230;BME280;12362;50.004;8.006;2022-11-18T13:19:40;99299.88;;;13.05;100.00
24230;BME280;12362;50.004;8.006;2022-11-18T13:22:16;99304.63;;;13.00;100.00
24230;BME280;12362;50.004;8.006;2022-11-18T13:25:00;99310.41;;;12.92;100.00
24230;BME280;12362;50.004;8.006;2022-11-18T13:30:09;99310.00;;;12.75;100.00
24230;BME280;12362;50.004;8.006;2022-11-18T13:32:41;99309.09;;;12.64;100.00
24230;BME280;12362;50.004;8.006;2022-11-18T13:35:13;99313.91;;;12.46;100.00
24230;BME280;12362;50.004;8.006;2022-11-18T13:37:52;99313.91;;;12.46;100.00
24230;BME280;12362;50.004;8.006;2022-11-18T13:40:21;99311.47;;;12.56;100.00
24230;BME280;12362;50.004;8.006;2022-11-18T13:42:46;99318.25;;;13.03;100.00
24230;BME280;12362;50.004;8.006;2022-11-18T13:45:13;99307.97;;;13.35;100.00
24230;BME280;12362;50.004;8.006;2022-11-18T13:47:59;99303.56;;;13.79;100.00
24230;BME280;12362;50.004;8.006;2022-11-18T13:50:34;99300.06;;;14.43;100.00
24230;BME280;12362;50.004;8.006;2022-11-18T13:53:07;99288.81;;;14.62;100.00
24230;BME280;12362;50.004;8.006;2022-11-18T13:55:39;99294.34;;;14.69;100.00
24230;BME280;12362;50.004;8.006;2022-11-18T14:00:43;99305.81;;;13.83;100.00
24230;BME280;12362;50.004;8.006;2022-11-18T14:03:28;99315.16;;;13.86;100.00
24230;BME280;12362;50.004;8.006;2022-11-18T14:05:56;99313.50;;;13.74;100.00
24230;BME280;12362;50.004;8.006;2022-11-18T14:08:30;99313.75;;;13.71;100.00
24230;BME280;12362;50.004;8.006;2022-11-18T14:10:56;99325.13;;;13.04;100.00
24230;BME280;12362;50.004;8.006;2022-11-18T14:13:31;99321.09;;;13.11;100.00
24230;BME280;12362;50.004;8.006;2022-11-18T14:16:00;99323.97;;;12.85;100.00
24230;BME280;12362;50.004;8.006;2022-11-18T14:18:36;99323.94;;;12.74;100.00
24230;BME280;12362;50.004;8.006;2022-11-18T14:21:04;99321.72;;;12.46;100.00
24230;BME280;12362;50.004;8.006;2022-11-18T14:23:35;99323.06;;;12.28;100.00
24230;BME280;12362;50.004;8.006;2022-11-18T14:26:03;99335.75;;;12.33;100.00
24230;BME280;12362;50.004;8.006;2022-11-18T14:28:30;99340.97;;;12.33;100.00
24230;BME280;12362;50.004;8.006;2022-11-18T14:31:02;99340.34;;;12.29;100.00
24230;BME280;12362;50.004;8.006;2022-11-18T14:33:33;99345.06;;;12.48;100.00
24230;BME280;12362;50.004;8.006;2022-11-18T14:36:01;99337.59;;;12.43;100.00
24230;BME280;12362;50.004;8.006;2022-11-18T14:41:08;99353.91;;;12.22;100.00
24230;BME280;12362;50.004;8.006;2022-11-18T14:43:34;99353.69;;;12.25;100.00
24230;BME280;12362;50.004;8.006;2022-11-18T14:46:01;99356.25;;;12.37;100.00